sensor_id;sensor_type;location;lat;lon;timestamp;P1;durP1;ratioP1;P2;durP2;ratioP2
27489;SDS011;14925;51.026;13.752;2023-09-30T00:02:15;24.45;;;11.05;;
27489;SDS011;14925;51.026;13.752;2023-09-30T00:04:41;26.88;;;11.23;;
27489;SDS011;14925;51.026;13.752;2023-09-30T00:07:06;26.73;;;11.35;;
27489;SDS011;14925;51.026;13.752;2023-09-30T00:09:31;26.77;;;10.85;;
27489;SDS011;14925;51.026;13.752;2023-09-30T00:11:57;28.27;;;10.57;;
27489;SDS011;14925;51.026;13.752;2023-09-30T00:14:22;24.55;;;10.88;;
27489;SDS011;14925;51.026;13.752;2023-09-30T00:16:48;25.60;;;10.93;;
27489;SDS011;14925;51.026;13.752;2023-09-30T00:19:13;27.95;;;10.57;;
27489;SDS011;14925;51.026;13.752;2023-09-30T00:21:38;22.13;;;10.15;;
27489;SDS011;14925;51.026;13.752;2023-09-30T00:24:04;22.40;;;9.00;;
27489;SDS011;14925;51.026;13.752;2023-09-30T00:26:30;23.65;;;9.43;;
27489;SDS011;14925;51.026;13.752;2023-09-30T00:28:55;19.92;;;8.82;;
27489;SDS011;14925;51.026;13.752;2023-09-30T00:31:21;19.08;;;7.70;;
27489;SDS011;14925;51.026;13.752;2023-09-30T00:33:47;13.93;;;4.75;;
27489;SDS011;14925;51.026;13.752;2023-09-30T00:36:13;13.15;;;4.13;;
27489;SDS011;14925;51.026;13.752;2023-09-30T00:38:38;10.35;;;3.42;;
27489;SDS011;14925;51.026;13.752;2023-09-30T00:41:05;9.75;;;2.92;;
27489;SDS011;14925;51.026;13.752;2023-09-30T00:43:32;8.23;;;2.88;;
27489;SDS011;14925;51.026;13.752;2023-09-30T00:46:01;5.80;;;2.20;;
27489;SDS011;14925;51.026;13.752;2023-09-30T00:48:31;7.07;;;2.30;;
27489;SDS011;14925;51.026;13.752;2023-09-30T00:51:00;3.72;;;2.08;;
27489;SDS011;14925;51.026;13.752;2023-09-30T00:53:26;5.10;;;1.88;;
27489;SDS011;14925;51.026;13.752;2023-09-30T00:55:53;4.85;;;1.92;;
27489;SDS011;14925;51.026;13.752;2023-09-30T00:58:19;6.28;;;2.00;;
27489;SDS011;14925;51.026;13.752;2023-09-30T01:00:45;4.07;;;1.98;;
27489;SDS011;14925;51.026;13.752;2023-09-30T01:03:11;11.73;;;2.03;;
27489;SDS011;14925;51.026;13.752;2023-09-30T01:05:37;3.83;;;1.77;;
27489;SDS011;14925;51.026;13.752;2023-09-30T01:08:03;3.22;;;1.50;;
27489;SDS011;14925;51.026;13.752;2023-09-30T01:10:29;3.90;;;1.70;;
27489;SDS011;14925;51.026;13.752;2023-09-30T01:12:54;6.78;;;1.75;;
27489;SDS011;14925;51.026;13.752;2023-09-30T01:15:19;6.00;;;1.30;;
27489;SDS011;14925;51.026;13.752;2023-09-30T01:17:45;7.03;;;1.20;;
27489;SDS011;14925;51.026;13.752;2023-09-30T01:20:10;5.13;;;1.10;;
27489;SDS011;14925;51.026;13.752;2023-09-30T01:22:41;2.25;;;0.85;;
27489;SDS011;14925;51.026;13.752;2023-09-30T01:25:06;5.32;;;1.08;;
27489;SDS011;14925;51.026;13.752;2023-09-30T01:27:34;5.70;;;0.90;;
27489;SDS011;14925;51.026;13.752;2023-09-30T01:30:00;3.78;;;0.90;;
27489;SDS011;14925;51.026;13.752;2023-09-30T01:32:25;2.45;;;1.10;;
27489;SDS011;14925;51.026;13.752;2023-09-30T01:34:51;3.22;;;1.13;;
27489;SDS011;14925;51.026;13.752;2023-09-30T01:37:17;6.35;;;1.20;;
27489;SDS011;14925;51.026;13.752;2023-09-30T01:39:42;3.33;;;1.10;;
27489;SDS011;14925;51.026;13.752;2023-09-30T01:42:10;3.50;;;1.02;;
27489;SDS011;14925;51.026;13.752;2023-09-30T01:44:36;3.53;;;1.27;;
27489;SDS011;14925;51.026;13.752;2023-09-30T01:47:01;5.63;;;1.58;;
27489;SDS011;14925;51.026;13.752;2023-09-30T01:49:29;6.38;;;1.20;;
27489;SDS011;14925;51.026;13.752;2023-09-30T01:51:55;5.40;;;1.50;;
27489;SDS011;14925;51.026;13.752;2023-09-30T01:54:21;6.00;;;1.67;;
27489;SDS011;14925;51.026;13.752;2023-09-30T01:56:46;6.10;;;1.40;;
27489;SDS011;14925;51.026;13.752;2023-09-30T01:59:11;3.65;;;1.30;;
27489;SDS011;14925;51.026;13.752;2023-09-30T02:01:37;4.53;;;1.73;;
27489;SDS011;14925;51.026;13.752;2023-09-30T02:04:02;5.97;;;1.55;;
27489;SDS011;14925;51.026;13.752;2023-09-30T02:06:28;2.72;;;1.60;;
27489;SDS011;14925;51.026;13.752;2023-09-30T02:08:53;4.78;;;1.60;;
27489;SDS011;14925;51.026;13.752;2023-09-30T02:11:18;8.25;;;1.70;;
27489;SDS011;14925;51.026;13.752;2023-09-30T02:13:44;8.23;;;2.00;;
27489;SDS011;14925;51.026;13.752;2023-09-30T02:16:13;5.85;;;2.00;;
27489;SDS011;14925;51.026;13.752;2023-09-30T02:18:38;7.10;;;1.70;;
27489;SDS011;14925;51.026;13.752;2023-09-30T02:21:06;7.72;;;2.13;;
27489;SDS011;14925;51.026;13.752;2023-09-30T02:23:33;6.80;;;1.92;;
27489;SDS011;14925;51.026;13.752;2023-09-30T02:25:59;7.10;;;2.00;;
27489;SDS011;14925;51.026;13.752;2023-09-30T02:28:28;6.35;;;2.30;;
27489;SDS011;14925;51.026;13.752;2023-09-30T02:30:54;5.78;;;1.83;;
27489;SDS011;14925;51.026;13.752;2023-09-30T02:33:19;8.38;;;2.17;;
27489;SDS011;14925;51.026;13.752;2023-09-30T02:35:45;8.93;;;2.08;;
27489;SDS011;14925;51.026;13.752;2023-09-30T02:38:11;9.80;;;2.17;;
27489;SDS011;14925;51.026;13.752;2023-09-30T02:40:36;10.65;;;2.05;;
27489;SDS011;14925;51.026;13.752;2023-09-30T02:43:03;8.00;;;1.85;;
27489;SDS011;14925;51.026;13.752;2023-09-30T02:45:29;8.32;;;2.00;;
27489;SDS011;14925;51.026;13.752;2023-09-30T02:47:54;9.38;;;2.15;;
27489;SDS011;14925;51.026;13.752;2023-09-30T02:50:20;11.10;;;2.03;;
27489;SDS011;14925;51.026;13.752;2023-09-30T02:52:46;6.15;;;1.80;;
27489;SDS011;14925;51.026;13.752;2023-09-30T02:55:12;8.02;;;1.90;;
27489;SDS011;14925;51.026;13.752;2023-09-30T02:57:37;10.73;;;2.10;;
27489;SDS011;14925;51.026;13.752;2023-09-30T03:00:03;8.32;;;2.45;;
27489;SDS011;14925;51.026;13.752;2023-09-30T03:02:54;9.10;;;2.15;;
27489;SDS011;14925;51.026;13.752;2023-09-30T03:05:20;11.65;;;2.70;;
27489;SDS011;14925;51.026;13.752;2023-09-30T03:07:46;9.63;;;2.45;;
27489;SDS011;14925;51.026;13.752;2023-09-30T03:10:12;10.27;;;2.53;;
27489;SDS011;14925;51.026;13.752;2023-09-30T03:12:45;7.75;;;2.40;;
27489;SDS011;14925;51.026;13.752;2023-09-30T03:15:17;12.73;;;2.53;;
27489;SDS011;14925;51.026;13.752;2023-09-30T03:17:43;11.68;;;2.80;;
27489;SDS011;14925;51.026;13.752;2023-09-30T03:20:09;10.55;;;3.08;;
27489;SDS011;14925;51.026;13.752;2023-09-30T03:22:43;10.60;;;3.20;;
27489;SDS011;14925;51.026;13.752;2023-09-30T03:25:12;10.13;;;2.58;;
27489;SDS011;14925;51.026;13.752;2023-09-30T03:27:37;15.05;;;3.13;;
27489;SDS011;14925;51.026;13.752;2023-09-30T03:30:07;11.88;;;2.63;;
27489;SDS011;14925;51.026;13.752;2023-09-30T03:32:33;13.00;;;2.80;;
27489;SDS011;14925;51.026;13.752;2023-09-30T03:35:01;11.85;;;2.78;;
27489;SDS011;14925;51.026;13.752;2023-09-30T03:37:27;11.45;;;2.60;;
27489;SDS011;14925;51.026;13.752;2023-09-30T03:39:53;11.93;;;2.78;;
27489;SDS011;14925;51.026;13.752;2023-09-30T03:42:22;11.23;;;2.72;;
27489;SDS011;14925;51.026;13.752;2023-09-30T03:44:48;16.05;;;2.78;;
27489;SDS011;14925;51.026;13.752;2023-09-30T03:47:14;13.50;;;2.95;;
27489;SDS011;14925;51.026;13.752;2023-09-30T03:49:40;10.88;;;3.00;;
27489;SDS011;14925;51.026;13.752;2023-09-30T03:52:07;12.90;;;3.00;;
27489;SDS011;14925;51.026;13.752;2023-09-30T03:54:33;15.50;;;3.00;;
27489;SDS011;14925;51.026;13.752;2023-09-30T03:56:59;11.70;;;2.95;;
27489;SDS011;14925;51.026;13.752;2023-09-30T03:59:25;13.60;;;2.60;;
27489;SDS011;14925;51.026;13.752;2023-09-30T04:01:51;15.65;;;3.80;;
27489;SDS011;14925;51.026;13.752;2023-09-30T04:04:18;14.82;;;3.15;;
27489;SDS011;14925;51.026;13.752;2023-09-30T04:06:46;15.55;;;3.17;;
27489;SDS011;14925;51.026;13.752;2023-09-30T04:09:13;15.20;;;3.60;;
27489;SDS011;14925;51.026;13.752;2023-09-30T04:11:41;15.48;;;3.35;;
27489;SDS011;14925;51.026;13.752;2023-09-30T04:14:07;11.90;;;3.05;;
27489;SDS011;14925;51.026;13.752;2023-09-30T04:16:33;17.48;;;3.60;;
27489;SDS011;14925;51.026;13.752;2023-09-30T04:18:58;13.75;;;3.25;;
27489;SDS011;14925;51.026;13.752;2023-09-30T04:21:24;14.50;;;3.22;;
27489;SDS011;14925;51.026;13.752;2023-09-30T04:23:49;18.77;;;3.58;;
27489;SDS011;14925;51.026;13.752;2023-09-30T04:26:15;15.40;;;3.70;;
27489;SDS011;14925;51.026;13.752;2023-09-30T04:28:40;14.45;;;3.33;;
27489;SDS011;14925;51.026;13.752;2023-09-30T04:31:06;14.75;;;4.00;;
27489;SDS011;14925;51.026;13.752;2023-09-30T04:33:33;19.02;;;3.70;;
27489;SDS011;14925;51.026;13.752;2023-09-30T04:36:00;18.25;;;3.92;;
27489;SDS011;14925;51.026;13.752;2023-09-30T04:38:26;14.27;;;3.58;;
27489;SDS011;14925;51.026;13.752;2023-09-30T04:40:52;16.25;;;3.60;;
27489;SDS011;14925;51.026;13.752;2023-09-30T04:43:19;16.55;;;3.70;;
27489;SDS011;14925;51.026;13.752;2023-09-30T04:45:46;15.48;;;3.75;;
27489;SDS011;14925;51.026;13.752;2023-09-30T04:48:12;14.20;;;3.45;;
27489;SDS011;14925;51.026;13.752;2023-09-30T04:50:38;15.85;;;3.42;;
27489;SDS011;14925;51.026;13.752;2023-09-30T04:53:04;16.70;;;3.67;;
27489;SDS011;14925;51.026;13.752;2023-09-30T04:55:30;18.90;;;3.78;;
27489;SDS011;14925;51.026;13.752;2023-09-30T04:57:55;19.77;;;4.45;;
27489;SDS011;14925;51.026;13.752;2023-09-30T05:00:21;15.00;;;3.75;;
27489;SDS011;14925;51.026;13.752;2023-09-30T05:02:55;21.27;;;3.95;;
27489;SDS011;14925;51.026;13.752;2023-09-30T05:05:21;21.42;;;4.30;;
27489;SDS011;14925;51.026;13.752;2023-09-30T05:07:46;17.13;;;4.07;;
27489;SDS011;14925;51.026;13.752;2023-09-30T05:10:13;21.08;;;3.97;;
27489;SDS011;14925;51.026;13.752;2023-09-30T05:12:41;18.75;;;4.28;;
27489;SDS011;14925;51.026;13.752;2023-09-30T05:15:10;21.58;;;4.65;;
27489;SDS011;14925;51.026;13.752;2023-09-30T05:17:36;15.25;;;3.65;;
27489;SDS011;14925;51.026;13.752;2023-09-30T05:20:01;19.00;;;4.30;;
27489;SDS011;14925;51.026;13.752;2023-09-30T05:22:32;15.82;;;3.97;;
27489;SDS011;14925;51.026;13.752;2023-09-30T05:24:58;15.13;;;3.75;;
27489;SDS011;14925;51.026;13.752;2023-09-30T05:27:23;17.35;;;3.95;;
27489;SDS011;14925;51.026;13.752;2023-09-30T05:29:49;17.05;;;4.20;;
27489;SDS011;14925;51.026;13.752;2023-09-30T05:32:14;16.83;;;3.58;;
27489;SDS011;14925;51.026;13.752;2023-09-30T05:34:39;23.30;;;4.47;;
27489;SDS011;14925;51.026;13.752;2023-09-30T05:37:05;18.63;;;3.75;;
27489;SDS011;14925;51.026;13.752;2023-09-30T05:39:30;16.52;;;3.92;;
27489;SDS011;14925;51.026;13.752;2023-09-30T05:41:56;20.45;;;4.30;;
27489;SDS011;14925;51.026;13.752;2023-09-30T05:44:25;17.67;;;3.88;;
27489;SDS011;14925;51.026;13.752;2023-09-30T05:46:52;16.10;;;3.78;;
27489;SDS011;14925;51.026;13.752;2023-09-30T05:49:18;16.65;;;3.35;;
27489;SDS011;14925;51.026;13.752;2023-09-30T05:51:43;19.45;;;3.88;;
27489;SDS011;14925;51.026;13.752;2023-09-30T05:54:09;13.50;;;3.35;;
27489;SDS011;14925;51.026;13.752;2023-09-30T05:56:38;15.55;;;3.72;;
27489;SDS011;14925;51.026;13.752;2023-09-30T05:59:04;20.02;;;4.00;;
27489;SDS011;14925;51.026;13.752;2023-09-30T06:01:30;17.67;;;3.80;;
27489;SDS011;14925;51.026;13.752;2023-09-30T06:03:57;16.48;;;3.65;;
27489;SDS011;14925;51.026;13.752;2023-09-30T06:06:23;18.35;;;4.07;;
27489;SDS011;14925;51.026;13.752;2023-09-30T06:08:49;13.88;;;3.53;;
27489;SDS011;14925;51.026;13.752;2023-09-30T06:11:18;19.00;;;4.10;;
27489;SDS011;14925;51.026;13.752;2023-09-30T06:13:45;16.70;;;3.75;;
27489;SDS011;14925;51.026;13.752;2023-09-30T06:16:11;15.60;;;3.90;;
27489;SDS011;14925;51.026;13.752;2023-09-30T06:18:37;15.52;;;4.07;;
27489;SDS011;14925;51.026;13.752;2023-09-30T06:21:03;15.30;;;3.60;;
27489;SDS011;14925;51.026;13.752;2023-09-30T06:23:29;15.65;;;3.47;;
27489;SDS011;14925;51.026;13.752;2023-09-30T06:25:56;17.17;;;4.28;;
27489;SDS011;14925;51.026;13.752;2023-09-30T06:28:21;14.73;;;3.72;;
27489;SDS011;14925;51.026;13.752;2023-09-30T06:30:51;12.27;;;3.65;;
27489;SDS011;14925;51.026;13.752;2023-09-30T06:33:17;17.67;;;3.90;;
27489;SDS011;14925;51.026;13.752;2023-09-30T06:35:42;15.73;;;3.50;;
27489;SDS011;14925;51.026;13.752;2023-09-30T06:38:15;15.48;;;3.65;;
27489;SDS011;14925;51.026;13.752;2023-09-30T06:40:44;19.50;;;4.63;;
27489;SDS011;14925;51.026;13.752;2023-09-30T06:43:12;19.40;;;4.15;;
27489;SDS011;14925;51.026;13.752;2023-09-30T06:45:41;20.20;;;4.03;;
27489;SDS011;14925;51.026;13.752;2023-09-30T06:48:07;12.90;;;3.65;;
27489;SDS011;14925;51.026;13.752;2023-09-30T06:50:37;20.10;;;4.03;;
27489;SDS011;14925;51.026;13.752;2023-09-30T06:53:13;15.45;;;3.83;;
27489;SDS011;14925;51.026;13.752;2023-09-30T06:55:39;19.63;;;4.20;;
27489;SDS011;14925;51.026;13.752;2023-09-30T06:58:05;15.27;;;3.70;;
27489;SDS011;14925;51.026;13.752;2023-09-30T07:00:32;14.15;;;3.50;;
27489;SDS011;14925;51.026;13.752;2023-09-30T07:02:59;18.73;;;4.25;;
27489;SDS011;14925;51.026;13.752;2023-09-30T07:05:25;17.30;;;3.33;;
27489;SDS011;14925;51.026;13.752;2023-09-30T07:07:51;15.98;;;4.00;;
27489;SDS011;14925;51.026;13.752;2023-09-30T07:10:16;22.67;;;4.03;;
27489;SDS011;14925;51.026;13.752;2023-09-30T07:12:42;20.27;;;3.90;;
27489;SDS011;14925;51.026;13.752;2023-09-30T07:15:07;17.70;;;3.92;;
27489;SDS011;14925;51.026;13.752;2023-09-30T07:17:33;13.32;;;3.92;;
27489;SDS011;14925;51.026;13.752;2023-09-30T07:19:59;15.35;;;4.22;;
27489;SDS011;14925;51.026;13.752;2023-09-30T07:22:24;18.80;;;3.88;;
27489;SDS011;14925;51.026;13.752;2023-09-30T07:24:50;14.15;;;3.72;;
27489;SDS011;14925;51.026;13.752;2023-09-30T07:27:15;21.55;;;4.43;;
27489;SDS011;14925;51.026;13.752;2023-09-30T07:29:41;17.77;;;4.13;;
27489;SDS011;14925;51.026;13.752;2023-09-30T07:32:07;19.45;;;3.90;;
27489;SDS011;14925;51.026;13.752;2023-09-30T07:34:33;18.85;;;3.83;;
27489;SDS011;14925;51.026;13.752;2023-09-30T07:36:58;14.13;;;3.70;;
27489;SDS011;14925;51.026;13.752;2023-09-30T07:39:24;15.32;;;4.03;;
27489;SDS011;14925;51.026;13.752;2023-09-30T07:41:49;20.45;;;4.43;;
27489;SDS011;14925;51.026;13.752;2023-09-30T07:44:47;18.48;;;3.88;;
27489;SDS011;14925;51.026;13.752;2023-09-30T07:47:12;17.13;;;4.13;;
27489;SDS011;14925;51.026;13.752;2023-09-30T07:49:38;21.80;;;4.57;;
27489;SDS011;14925;51.026;13.752;2023-09-30T07:52:03;15.60;;;4.00;;
27489;SDS011;14925;51.026;13.752;2023-09-30T07:54:32;16.73;;;3.70;;
27489;SDS011;14925;51.026;13.752;2023-09-30T07:56:57;20.95;;;4.07;;
27489;SDS011;14925;51.026;13.752;2023-09-30T07:59:24;17.30;;;3.92;;
27489;SDS011;14925;51.026;13.752;2023-09-30T08:01:52;15.77;;;4.45;;
27489;SDS011;14925;51.026;13.752;2023-09-30T08:04:22;23.88;;;4.25;;
27489;SDS011;14925;51.026;13.752;2023-09-30T08:06:50;21.65;;;4.47;;
27489;SDS011;14925;51.026;13.752;2023-09-30T08:09:16;20.05;;;3.80;;
27489;SDS011;14925;51.026;13.752;2023-09-30T08:11:43;20.25;;;3.95;;
27489;SDS011;14925;51.026;13.752;2023-09-30T08:14:09;18.75;;;3.80;;
27489;SDS011;14925;51.026;13.752;2023-09-30T08:16:37;19.27;;;4.22;;
27489;SDS011;14925;51.026;13.752;2023-09-30T08:19:02;17.25;;;4.15;;
27489;SDS011;14925;51.026;13.752;2023-09-30T08:21:28;22.13;;;4.15;;
27489;SDS011;14925;51.026;13.752;2023-09-30T08:23:55;20.60;;;4.10;;
27489;SDS011;14925;51.026;13.752;2023-09-30T08:26:20;17.80;;;3.63;;
27489;SDS011;14925;51.026;13.752;2023-09-30T08:28:45;22.30;;;4.00;;
27489;SDS011;14925;51.026;13.752;2023-09-30T08:31:11;16.05;;;3.53;;
27489;SDS011;14925;51.026;13.752;2023-09-30T08:33:36;19.48;;;4.47;;
27489;SDS011;14925;51.026;13.752;2023-09-30T08:36:05;21.92;;;3.80;;
27489;SDS011;14925;51.026;13.752;2023-09-30T08:38:35;14.80;;;3.70;;
27489;SDS011;14925;51.026;13.752;2023-09-30T08:41:03;16.77;;;4.18;;
27489;SDS011;14925;51.026;13.752;2023-09-30T08:43:29;18.48;;;4.28;;
27489;SDS011;14925;51.026;13.752;2023-09-30T08:45:58;21.08;;;4.22;;
27489;SDS011;14925;51.026;13.752;2023-09-30T08:48:33;21.33;;;4.28;;
27489;SDS011;14925;51.026;13.752;2023-09-30T08:51:05;14.20;;;3.70;;
27489;SDS011;14925;51.026;13.752;2023-09-30T08:53:30;17.98;;;3.63;;
27489;SDS011;14925;51.026;13.752;2023-09-30T08:55:56;17.80;;;3.65;;
27489;SDS011;14925;51.026;13.752;2023-09-30T08:58:23;18.67;;;3.83;;
27489;SDS011;14925;51.026;13.752;2023-09-30T09:00:51;16.10;;;3.75;;
27489;SDS011;14925;51.026;13.752;2023-09-30T09:03:18;19.55;;;4.28;;
27489;SDS011;14925;51.026;13.752;2023-09-30T09:05:44;19.02;;;3.83;;
27489;SDS011;14925;51.026;13.752;2023-09-30T09:08:09;22.98;;;3.75;;
27489;SDS011;14925;51.026;13.752;2023-09-30T09:10:34;20.17;;;3.47;;
27489;SDS011;14925;51.026;13.752;2023-09-30T09:13:00;20.58;;;3.92;;
27489;SDS011;14925;51.026;13.752;2023-09-30T09:15:26;22.38;;;3.67;;
27489;SDS011;14925;51.026;13.752;2023-09-30T09:17:55;17.63;;;3.70;;
27489;SDS011;14925;51.026;13.752;2023-09-30T09:20:22;15.25;;;3.50;;
27489;SDS011;14925;51.026;13.752;2023-09-30T09:22:56;14.35;;;3.90;;
27489;SDS011;14925;51.026;13.752;2023-09-30T09:25:25;19.25;;;3.80;;
27489;SDS011;14925;51.026;13.752;2023-09-30T09:27:51;16.92;;;3.50;;
27489;SDS011;14925;51.026;13.752;2023-09-30T09:30:20;20.40;;;4.00;;
27489;SDS011;14925;51.026;13.752;2023-09-30T09:32:58;19.80;;;3.70;;
27489;SDS011;14925;51.026;13.752;2023-09-30T09:35:28;20.88;;;4.38;;
27489;SDS011;14925;51.026;13.752;2023-09-30T09:37:54;13.95;;;3.63;;
27489;SDS011;14925;51.026;13.752;2023-09-30T09:40:25;16.70;;;3.85;;
27489;SDS011;14925;51.026;13.752;2023-09-30T09:42:53;20.95;;;3.97;;
27489;SDS011;14925;51.026;13.752;2023-09-30T09:45:21;15.88;;;3.88;;
27489;SDS011;14925;51.026;13.752;2023-09-30T09:47:50;19.35;;;3.60;;
27489;SDS011;14925;51.026;13.752;2023-09-30T09:50:20;13.60;;;3.88;;
27489;SDS011;14925;51.026;13.752;2023-09-30T09:52:47;16.85;;;3.50;;
27489;SDS011;14925;51.026;13.752;2023-09-30T09:55:16;16.50;;;3.55;;
27489;SDS011;14925;51.026;13.752;2023-09-30T09:57:45;17.30;;;3.80;;
27489;SDS011;14925;51.026;13.752;2023-09-30T10:00:11;16.85;;;3.75;;
27489;SDS011;14925;51.026;13.752;2023-09-30T10:02:44;17.45;;;3.42;;
27489;SDS011;14925;51.026;13.752;2023-09-30T10:05:11;15.68;;;3.55;;
27489;SDS011;14925;51.026;13.752;2023-09-30T10:07:37;11.98;;;3.55;;
27489;SDS011;14925;51.026;13.752;2023-09-30T10:10:06;14.45;;;3.63;;
27489;SDS011;14925;51.026;13.752;2023-09-30T10:12:38;12.23;;;2.93;;
27489;SDS011;14925;51.026;13.752;2023-09-30T10:18:00;14.57;;;3.47;;
27489;SDS011;14925;51.026;13.752;2023-09-30T10:20:28;17.00;;;3.50;;
27489;SDS011;14925;51.026;13.752;2023-09-30T10:25:41;12.23;;;3.47;;
27489;SDS011;14925;51.026;13.752;2023-09-30T10:31:16;14.43;;;2.67;;
27489;SDS011;14925;51.026;13.752;2023-09-30T10:36:32;16.55;;;3.67;;
27489;SDS011;14925;51.026;13.752;2023-09-30T10:39:02;12.95;;;3.15;;
27489;SDS011;14925;51.026;13.752;2023-09-30T10:49:49;14.32;;;3.50;;
27489;SDS011;14925;51.026;13.752;2023-09-30T10:52:21;12.18;;;3.17;;
27489;SDS011;14925;51.026;13.752;2023-09-30T10:54:49;17.73;;;3.55;;
27489;SDS011;14925;51.026;13.752;2023-09-30T10:57:26;16.20;;;3.15;;
27489;SDS011;14925;51.026;13.752;2023-09-30T11:00:11;16.02;;;3.25;;
27489;SDS011;14925;51.026;13.752;2023-09-30T11:02:51;14.38;;;2.88;;
27489;SDS011;14925;51.026;13.752;2023-09-30T11:05:18;13.18;;;2.67;;
27489;SDS011;14925;51.026;13.752;2023-09-30T11:07:47;13.60;;;2.72;;
27489;SDS011;14925;51.026;13.752;2023-09-30T11:10:15;12.75;;;3.10;;
27489;SDS011;14925;51.026;13.752;2023-09-30T11:12:53;13.95;;;3.13;;
27489;SDS011;14925;51.026;13.752;2023-09-30T11:15:19;18.00;;;3.42;;
27489;SDS011;14925;51.026;13.752;2023-09-30T11:17:44;19.52;;;3.15;;
27489;SDS011;14925;51.026;13.752;2023-09-30T11:20:10;9.85;;;2.67;;
27489;SDS011;14925;51.026;13.752;2023-09-30T11:22:35;13.45;;;3.00;;
27489;SDS011;14925;51.026;13.752;2023-09-30T11:25:01;9.90;;;2.65;;
27489;SDS011;14925;51.026;13.752;2023-09-30T11:27:28;8.35;;;2.80;;
27489;SDS011;14925;51.026;13.752;2023-09-30T11:29:54;10.70;;;2.40;;
27489;SDS011;14925;51.026;13.752;2023-09-30T11:32:26;14.13;;;2.63;;
27489;SDS011;14925;51.026;13.752;2023-09-30T11:34:53;16.33;;;3.42;;
27489;SDS011;14925;51.026;13.752;2023-09-30T11:37:19;12.32;;;2.55;;
27489;SDS011;14925;51.026;13.752;2023-09-30T11:39:44;11.57;;;2.50;;
27489;SDS011;14925;51.026;13.752;2023-09-30T11:42:16;12.93;;;2.65;;
27489;SDS011;14925;51.026;13.752;2023-09-30T11:44:48;12.38;;;2.90;;
27489;SDS011;14925;51.026;13.752;2023-09-30T11:47:15;13.63;;;2.92;;
27489;SDS011;14925;51.026;13.752;2023-09-30T11:49:42;13.48;;;2.78;;
27489;SDS011;14925;51.026;13.752;2023-09-30T11:52:13;11.57;;;2.78;;
27489;SDS011;14925;51.026;13.752;2023-09-30T11:57:13;11.50;;;2.90;;
27489;SDS011;14925;51.026;13.752;2023-09-30T11:59:43;11.95;;;2.95;;
27489;SDS011;14925;51.026;13.752;2023-09-30T12:02:10;11.90;;;2.85;;
27489;SDS011;14925;51.026;13.752;2023-09-30T12:04:36;11.38;;;2.90;;
27489;SDS011;14925;51.026;13.752;2023-09-30T12:07:02;14.43;;;2.75;;
27489;SDS011;14925;51.026;13.752;2023-09-30T12:09:28;16.48;;;3.33;;
27489;SDS011;14925;51.026;13.752;2023-09-30T12:11:55;10.20;;;2.58;;
27489;SDS011;14925;51.026;13.752;2023-09-30T12:14:22;15.07;;;3.05;;
27489;SDS011;14925;51.026;13.752;2023-09-30T12:16:48;15.30;;;3.05;;
27489;SDS011;14925;51.026;13.752;2023-09-30T12:19:15;12.63;;;2.63;;
27489;SDS011;14925;51.026;13.752;2023-09-30T12:21:42;13.30;;;2.65;;
27489;SDS011;14925;51.026;13.752;2023-09-30T12:24:08;13.23;;;2.63;;
27489;SDS011;14925;51.026;13.752;2023-09-30T12:26:40;16.05;;;2.67;;
27489;SDS011;14925;51.026;13.752;2023-09-30T12:29:06;12.18;;;2.40;;
27489;SDS011;14925;51.026;13.752;2023-09-30T12:31:31;8.85;;;2.80;;
27489;SDS011;14925;51.026;13.752;2023-09-30T12:33:58;13.52;;;2.80;;
27489;SDS011;14925;51.026;13.752;2023-09-30T12:36:24;11.40;;;2.65;;
27489;SDS011;14925;51.026;13.752;2023-09-30T12:38:50;9.85;;;2.70;;
27489;SDS011;14925;51.026;13.752;2023-09-30T12:41:15;10.80;;;3.03;;
27489;SDS011;14925;51.026;13.752;2023-09-30T12:43:40;12.45;;;2.92;;
27489;SDS011;14925;51.026;13.752;2023-09-30T12:46:07;11.82;;;2.95;;
27489;SDS011;14925;51.026;13.752;2023-09-30T12:48:33;18.30;;;2.75;;
27489;SDS011;14925;51.026;13.752;2023-09-30T12:50:59;19.02;;;2.75;;
27489;SDS011;14925;51.026;13.752;2023-09-30T12:53:24;10.77;;;2.45;;
27489;SDS011;14925;51.026;13.752;2023-09-30T12:55:50;11.02;;;2.40;;
27489;SDS011;14925;51.026;13.752;2023-09-30T12:58:15;10.00;;;2.42;;
27489;SDS011;14925;51.026;13.752;2023-09-30T13:00:40;13.43;;;2.92;;
27489;SDS011;14925;51.026;13.752;2023-09-30T13:03:06;10.23;;;2.70;;
27489;SDS011;14925;51.026;13.752;2023-09-30T13:05:32;9.15;;;2.35;;
27489;SDS011;14925;51.026;13.752;2023-09-30T13:07:58;12.70;;;2.47;;
27489;SDS011;14925;51.026;13.752;2023-09-30T13:10:23;11.85;;;2.75;;
27489;SDS011;14925;51.026;13.752;2023-09-30T13:12:49;7.90;;;2.35;;
27489;SDS011;14925;51.026;13.752;2023-09-30T13:15:15;10.52;;;2.40;;
27489;SDS011;14925;51.026;13.752;2023-09-30T13:17:42;11.93;;;2.80;;
27489;SDS011;14925;51.026;13.752;2023-09-30T13:20:08;13.00;;;2.90;;
27489;SDS011;14925;51.026;13.752;2023-09-30T13:22:34;11.50;;;2.72;;
27489;SDS011;14925;51.026;13.752;2023-09-30T13:25:03;10.88;;;2.50;;
27489;SDS011;14925;51.026;13.752;2023-09-30T13:27:33;10.45;;;2.40;;
27489;SDS011;14925;51.026;13.752;2023-09-30T13:29:59;9.40;;;2.15;;
27489;SDS011;14925;51.026;13.752;2023-09-30T13:32:24;11.38;;;2.20;;
27489;SDS011;14925;51.026;13.752;2023-09-30T13:34:51;9.95;;;2.50;;
27489;SDS011;14925;51.026;13.752;2023-09-30T13:37:16;9.13;;;2.20;;
27489;SDS011;14925;51.026;13.752;2023-09-30T13:39:42;11.70;;;2.50;;
27489;SDS011;14925;51.026;13.752;2023-09-30T13:42:07;8.40;;;2.55;;
27489;SDS011;14925;51.026;13.752;2023-09-30T13:44:33;10.98;;;2.65;;
27489;SDS011;14925;51.026;13.752;2023-09-30T13:46:58;10.40;;;2.20;;
27489;SDS011;14925;51.026;13.752;2023-09-30T13:49:24;9.05;;;2.22;;
27489;SDS011;14925;51.026;13.752;2023-09-30T13:51:50;12.68;;;2.38;;
27489;SDS011;14925;51.026;13.752;2023-09-30T13:54:15;11.75;;;2.75;;
27489;SDS011;14925;51.026;13.752;2023-09-30T13:56:40;13.00;;;2.63;;
27489;SDS011;14925;51.026;13.752;2023-09-30T13:59:06;11.02;;;2.55;;
27489;SDS011;14925;51.026;13.752;2023-09-30T14:01:31;10.98;;;2.55;;
27489;SDS011;14925;51.026;13.752;2023-09-30T14:03:57;13.82;;;2.88;;
27489;SDS011;14925;51.026;13.752;2023-09-30T14:06:23;11.48;;;2.25;;
27489;SDS011;14925;51.026;13.752;2023-09-30T14:08:49;12.77;;;2.85;;
27489;SDS011;14925;51.026;13.752;2023-09-30T14:11:15;7.60;;;2.13;;
27489;SDS011;14925;51.026;13.752;2023-09-30T14:13:40;11.18;;;2.30;;
27489;SDS011;14925;51.026;13.752;2023-09-30T14:16:06;10.48;;;2.45;;
27489;SDS011;14925;51.026;13.752;2023-09-30T14:18:32;10.63;;;2.70;;
27489;SDS011;14925;51.026;13.752;2023-09-30T14:20:58;12.77;;;2.65;;
27489;SDS011;14925;51.026;13.752;2023-09-30T14:23:24;10.73;;;2.20;;
27489;SDS011;14925;51.026;13.752;2023-09-30T14:25:49;11.30;;;2.22;;
27489;SDS011;14925;51.026;13.752;2023-09-30T14:28:15;11.45;;;2.72;;
27489;SDS011;14925;51.026;13.752;2023-09-30T14:30:40;6.38;;;1.90;;
27489;SDS011;14925;51.026;13.752;2023-09-30T14:33:06;10.50;;;2.42;;
27489;SDS011;14925;51.026;13.752;2023-09-30T14:35:35;9.02;;;2.22;;
27489;SDS011;14925;51.026;13.752;2023-09-30T14:38:02;10.77;;;2.30;;
27489;SDS011;14925;51.026;13.752;2023-09-30T14:40:28;10.85;;;2.35;;
27489;SDS011;14925;51.026;13.752;2023-09-30T14:42:53;7.10;;;2.10;;
27489;SDS011;14925;51.026;13.752;2023-09-30T14:45:19;9.52;;;2.30;;